Time;durP1;ratioP1;P1;durP2;ratioP2;P2;SDS_P1;SDS_P2;PMS_P1;PMS_P2;Temp;Humidity;BMP_temperature;BMP_pressure;BME280_temperature;BME280_humidity;BME280_pressure;Samples;Min_cycle;Max_cycle;Signal;HPM_P1;HPM_P2
2022/05/05 00:01:37;;;;;;;3.05;2.60;;;17.50;49.50;;;;;;5011778;28;88783;-65
2022/05/05 00:04:03;;;;;;;4.15;2.80;;;17.50;49.60;;;;;;5010141;28;88175;-64
2022/05/05 00:06:29;;;;;;;4.63;3.20;;;17.50;49.60;;;;;;5011009;28;88867;-64
2022/05/05 00:08:55;;;;;;;4.63;2.80;;;17.50;49.60;;;;;;5011334;28;88694;-64
2022/05/05 00:17:07;;;;;;;3.85;3.03;;;17.40;49.60;;;;;;4998038;28;90317;-65
2022/05/05 00:19:34;;;;;;;3.67;2.83;;;17.50;49.70;;;;;;5010747;28;88606;-65
2022/05/05 00:22:01;;;;;;;5.28;3.10;;;17.40;49.60;;;;;;5010709;28;88842;-64
2022/05/05 00:24:26;;;;;;;4.70;2.85;;;17.40;49.70;;;;;;5011092;28;88133;-64
2022/05/05 00:26:53;;;;;;;4.10;3.15;;;17.40;49.60;;;;;;5010921;28;88680;-64
2022/05/05 00:29:21;;;;;;;4.25;3.25;;;17.40;49.60;;;;;;5011055;28;88580;-64
2022/05/05 00:31:47;;;;;;;4.90;3.20;;;17.40;49.70;;;;;;5009095;28;88972;-64
2022/05/05 00:34:13;;;;;;;3.90;2.90;;;17.40;49.70;;;;;;5009119;28;88584;-64
2022/05/05 00:36:39;;;;;;;5.25;3.17;;;17.40;49.70;;;;;;5009393;28;90861;-64
2022/05/05 00:39:06;;;;;;;5.88;2.78;;;17.40;49.60;;;;;;5008612;28;91151;-64
2022/05/05 00:41:36;;;;;;;4.53;2.83;;;17.40;49.60;;;;;;5010131;28;88371;-64
2022/05/05 00:44:06;;;;;;;3.65;2.75;;;17.40;49.60;;;;;;5009977;28;88366;-64
2022/05/05 00:46:33;;;;;;;5.10;3.13;;;17.40;49.60;;;;;;5010229;28;88953;-64
2022/05/05 00:48:59;;;;;;;4.00;2.83;;;17.40;49.70;;;;;;5009654;28;89451;-64
2022/05/05 00:51:26;;;;;;;4.22;2.88;;;17.40;49.60;;;;;;5010227;28;89059;-64
2022/05/05 00:53:52;;;;;;;5.07;2.95;;;17.40;49.70;;;;;;4991817;28;88465;-64
2022/05/05 00:56:19;;;;;;;4.38;3.28;;;17.40;49.60;;;;;;5009930;28;88742;-64
2022/05/05 00:58:46;;;;;;;5.03;3.20;;;17.40;49.60;;;;;;5010137;28;88503;-64
2022/05/05 01:01:17;;;;;;;4.78;3.05;;;17.40;49.60;;;;;;5009798;28;88861;-64
2022/05/05 01:03:43;;;;;;;4.03;2.42;;;17.40;49.60;;;;;;5009804;28;88575;-64
2022/05/05 01:06:08;;;;;;;3.55;2.85;;;17.40;49.60;;;;;;5010098;28;89119;-64
2022/05/05 01:08:35;;;;;;;4.25;3.00;;;17.30;49.60;;;;;;5010182;28;88383;-64
2022/05/05 01:11:00;;;;;;;4.85;2.97;;;17.40;49.60;;;;;;5010319;28;88556;-64
2022/05/05 01:13:27;;;;;;;4.07;3.15;;;17.30;49.60;;;;;;5010067;28;89220;-63
2022/05/05 01:15:57;;;;;;;4.57;3.20;;;17.30;49.60;;;;;;5009712;28;88745;-64
2022/05/05 01:18:23;;;;;;;4.43;2.65;;;17.40;49.60;;;;;;5009262;28;89353;-64
2022/05/05 01:20:52;;;;;;;3.90;2.72;;;17.40;49.60;;;;;;5013512;28;89359;-64
2022/05/05 01:23:19;;;;;;;6.18;3.17;;;17.30;49.50;;;;;;5012713;28;88400;-64
2022/05/05 01:28:32;;;;;;;5.63;3.42;;;17.30;49.50;;;;;;5013389;28;88776;-64
2022/05/05 01:30:58;;;;;;;5.13;3.10;;;17.30;49.60;;;;;;5013037;28;88507;-64
2022/05/05 01:33:26;;;;;;;3.80;2.67;;;17.30;49.60;;;;;;5011596;28;88816;-64
2022/05/05 01:35:57;;;;;;;4.82;3.00;;;17.30;49.50;;;;;;5013217;28;89269;-64
2022/05/05 01:38:35;;;;;;;4.70;3.40;;;17.30;49.60;;;;;;5013094;28;89362;-63
2022/05/05 01:41:02;;;;;;;4.78;3.17;;;17.30;49.50;;;;;;5012961;28;89027;-64
2022/05/05 01:43:28;;;;;;;4.13;2.78;;;17.30;49.60;;;;;;5013168;28;88562;-64
2022/05/05 01:45:54;;;;;;;4.38;2.83;;;17.30;49.60;;;;;;5011240;28;88721;-64
2022/05/05 01:48:19;;;;;;;4.60;2.85;;;17.30;49.50;;;;;;5012105;28;88626;-64
2022/05/05 01:50:48;;;;;;;5.43;3.03;;;17.30;49.60;;;;;;5010866;28;99784;-64
2022/05/05 01:53:14;;;;;;;4.15;2.70;;;17.30;49.50;;;;;;5012482;28;88807;-64
2022/05/05 01:55:39;;;;;;;4.05;2.75;;;17.30;49.50;;;;;;5012885;28;88705;-64
2022/05/05 01:58:05;;;;;;;4.63;3.03;;;17.30;49.50;;;;;;5012621;28;88807;-64
2022/05/05 02:00:31;;;;;;;4.90;2.88;;;17.30;49.50;;;;;;5012086;28;88287;-64
2022/05/05 02:02:57;;;;;;;3.35;2.88;;;17.30;49.60;;;;;;5011324;28;88891;-65
2022/05/05 02:05:23;;;;;;;5.60;2.78;;;17.20;49.60;;;;;;5013194;28;88816;-64
2022/05/05 02:07:49;;;;;;;3.83;2.60;;;17.20;49.50;;;;;;5011303;28;92381;-64
2022/05/05 02:10:17;;;;;;;4.50;2.97;;;17.20;49.50;;;;;;5012583;28;88401;-64
2022/05/05 02:12:45;;;;;;;2.95;2.53;;;17.20;49.50;;;;;;5012498;28;88281;-64
2022/05/05 02:15:12;;;;;;;4.40;2.90;;;17.20;49.50;;;;;;5012012;28;88693;-64
2022/05/05 02:17:40;;;;;;;4.85;3.03;;;17.20;49.50;;;;;;5012913;28;88691;-64
2022/05/05 02:20:07;;;;;;;4.60;3.10;;;17.20;49.50;;;;;;5011541;28;90310;-64
2022/05/05 02:22:33;;;;;;;5.63;3.33;;;17.20;49.50;;;;;;5011921;28;88423;-65
2022/05/05 02:24:59;;;;;;;4.90;2.90;;;17.20;49.60;;;;;;5012396;28;89084;-64
2022/05/05 02:27:25;;;;;;;3.75;2.60;;;17.20;49.50;;;;;;5011800;28;89388;-64
2022/05/05 02:29:52;;;;;;;4.80;2.85;;;17.20;49.50;;;;;;5010442;28;90139;-65
2022/05/05 02:32:18;;;;;;;3.60;2.83;;;17.20;49.50;;;;;;5011776;28;88963;-64
2022/05/05 02:34:45;;;;;;;5.30;2.78;;;17.20;49.50;;;;;;5012212;28;88704;-65
2022/05/05 02:39:55;;;;;;;4.43;2.92;;;17.20;49.40;;;;;;5012860;28;88455;-63
2022/05/05 02:42:21;;;;;;;4.78;2.90;;;17.20;49.50;;;;;;5010809;28;88522;-63
2022/05/05 02:44:47;;;;;;;3.95;2.60;;;17.20;49.40;;;;;;5011796;28;90834;-63
2022/05/05 02:47:12;;;;;;;4.68;2.78;;;17.20;49.50;;;;;;5010028;28;90411;-63
2022/05/05 02:49:38;;;;;;;4.95;3.10;;;17.10;49.50;;;;;;5011038;28;88607;-63
2022/05/05 02:52:05;;;;;;;5.30;3.25;;;17.20;49.50;;;;;;5011902;28;89533;-63
2022/05/05 02:54:47;;;;;;;3.88;2.70;;;17.20;49.50;;;;;;5011957;28;88931;-64
2022/05/05 02:57:13;;;;;;;5.72;3.10;;;17.10;49.50;;;;;;5010419;28;89290;-64
2022/05/05 02:59:39;;;;;;;5.20;3.10;;;17.20;49.50;;;;;;5011924;28;88858;-63
2022/05/05 03:02:04;;;;;;;5.00;3.20;;;17.10;49.40;;;;;;5010099;28;95236;-63
2022/05/05 03:04:30;;;;;;;4.30;2.83;;;17.10;49.40;;;;;;5011872;28;88735;-63
2022/05/05 03:06:56;;;;;;;5.00;3.10;;;17.20;49.40;;;;;;5011848;28;88700;-63
2022/05/05 03:09:21;;;;;;;5.10;3.20;;;17.10;49.40;;;;;;5009342;28;91112;-63
2022/05/05 03:11:47;;;;;;;4.03;3.03;;;17.20;49.40;;;;;;5010601;27;88393;-63
2022/05/05 03:14:12;;;;;;;4.30;3.13;;;17.10;49.30;;;;;;5011462;28;88806;-64
2022/05/05 06:34:27;;;;;;;5.25;2.72;;;18.70;50.60;;;;;;5004870;22;116501;-60
2022/05/05 06:36:52;;;;;;;4.63;2.78;;;18.70;51.60;;;;;;4994474;28;88209;-61
2022/05/05 06:39:18;;;;;;;4.63;2.55;;;18.80;50.90;;;;;;4999977;28;88515;-71
2022/05/05 06:41:43;;;;;;;8.90;2.55;;;18.80;50.70;;;;;;5017305;28;89087;-61
2022/05/05 06:44:10;;;;;;;6.05;2.72;;;18.80;50.70;;;;;;4994880;28;88840;-61
2022/05/05 06:46:36;;;;;;;8.25;2.35;;;18.90;50.70;;;;;;5016365;28;88350;-71
2022/05/05 06:49:02;;;;;;;5.20;2.45;;;18.90;50.70;;;;;;5004750;28;88095;-61
2022/05/05 06:51:27;;;;;;;5.78;2.70;;;18.90;50.60;;;;;;4999520;28;88699;-69
2022/05/05 06:53:53;;;;;;;5.78;2.50;;;18.90;50.60;;;;;;5024454;28;87648;-70
2022/05/05 06:56:18;;;;;;;9.05;2.50;;;19.00;50.80;;;;;;4994897;28;92363;-60
2022/05/05 06:58:44;;;;;;;9.82;2.38;;;19.00;50.60;;;;;;4993491;28;88028;-60
2022/05/05 07:05:23;;;;;;;4.45;2.38;;;19.10;50.60;;;;;;5020451;28;87468;-71
2022/05/05 07:06:39;;;;;;;4.53;2.40;;;19.10;50.70;;;;;;5013882;28;88453;-71
2022/05/05 07:11:49;;;;;;;5.40;2.38;;;19.20;50.10;;;;;;4993566;28;89412;-71
2022/05/05 07:14:15;;;;;;;5.78;2.30;;;19.20;50.40;;;;;;4993488;28;89652;-71
2022/05/05 07:16:41;;;;;;;4.20;2.13;;;19.30;50.30;;;;;;4992498;28;88576;-61
2022/05/05 07:19:09;;;;;;;5.50;2.47;;;19.30;50.30;;;;;;4994161;28;88023;-71
2022/05/05 07:21:35;;;;;;;5.28;2.42;;;19.30;50.10;;;;;;4993835;28;88572;-71
2022/05/05 07:24:00;;;;;;;4.50;2.20;;;19.30;50.20;;;;;;4994537;28;88751;-72
2022/05/05 07:26:26;;;;;;;3.45;2.20;;;19.30;50.30;;;;;;4975862;28;88119;-73
2022/05/05 07:28:51;;;;;;;3.97;2.20;;;19.30;50.60;;;;;;4975726;28;87764;-72
2022/05/05 07:31:18;;;;;;;5.82;2.47;;;19.30;50.50;;;;;;4993580;28;90473;-71
2022/05/05 07:33:44;;;;;;;4.00;2.15;;;19.20;50.60;;;;;;4992672;28;88376;-71
2022/05/05 07:36:10;;;;;;;7.18;2.10;;;19.20;50.60;;;;;;4993410;28;89189;-72
2022/05/05 07:38:35;;;;;;;6.60;2.42;;;19.10;51.10;;;;;;4993110;28;88363;-71
2022/05/05 07:41:01;;;;;;;3.92;2.25;;;19.10;51.50;;;;;;4992792;28;88648;-72
2022/05/05 07:43:26;;;;;;;6.45;2.70;;;19.10;50.70;;;;;;4992356;28;88082;-71
2022/05/05 07:45:52;;;;;;;7.95;2.50;;;19.10;50.50;;;;;;4993541;28;88530;-71
2022/05/05 07:48:19;;;;;;;8.02;2.97;;;19.00;50.30;;;;;;4975043;28;91628;-70
2022/05/05 07:50:47;;;;;;;12.02;2.60;;;18.90;50.30;;;;;;4992685;28;88454;-72
2022/05/05 07:53:13;;;;;;;7.72;2.45;;;18.90;50.60;;;;;;4993076;28;88647;-72
2022/05/05 07:55:38;;;;;;;8.25;2.60;;;18.90;50.80;;;;;;4975145;28;88739;-71
2022/05/05 07:58:04;;;;;;;11.50;2.40;;;18.90;51.40;;;;;;4992783;28;88145;-71
2022/05/05 08:00:30;;;;;;;8.02;2.63;;;18.80;51.30;;;;;;4992248;28;89969;-72
2022/05/05 08:02:55;;;;;;;6.25;2.17;;;18.80;51.30;;;;;;4992607;28;88329;-72
2022/05/05 08:05:21;;;;;;;7.50;2.10;;;18.80;51.30;;;;;;4992448;28;88303;-72
2022/05/05 08:07:49;;;;;;;5.68;2.45;;;18.80;51.30;;;;;;4974421;28;88751;-71
2022/05/05 08:10:16;;;;;;;5.65;2.13;;;18.90;51.30;;;;;;4992265;28;88918;-72
2022/05/05 08:12:42;;;;;;;6.55;2.42;;;18.90;51.40;;;;;;4991856;28;89583;-72
2022/05/05 08:15:08;;;;;;;6.25;2.22;;;19.00;51.60;;;;;;4993001;28;88433;-70
2022/05/05 08:17:34;;;;;;;7.97;2.17;;;19.00;51.70;;;;;;4974767;28;89631;-71
2022/05/05 08:20:01;;;;;;;8.05;2.45;;;19.10;51.80;;;;;;4992741;28;88435;-73
2022/05/05 08:22:27;;;;;;;10.63;2.83;;;19.20;51.90;;;;;;4992689;28;88387;-72
2022/05/05 08:30:21;;;;;;;8.23;2.35;;;19.30;51.80;;;;;;4992970;28;88189;-71
2022/05/05 08:32:46;;;;;;;6.95;2.35;;;19.30;51.80;;;;;;4992440;28;102798;-71
2022/05/05 08:35:12;;;;;;;8.32;2.45;;;19.30;51.90;;;;;;4974506;28;89181;-72
2022/05/05 08:37:38;;;;;;;5.97;2.28;;;19.30;52.00;;;;;;4974010;28;89445;-72
2022/05/05 08:40:05;;;;;;;11.75;2.58;;;19.30;51.90;;;;;;4992370;28;89505;-72
2022/05/05 08:42:31;;;;;;;6.40;2.40;;;19.30;52.10;;;;;;4992549;28;88265;-73
2022/05/05 08:44:59;;;;;;;8.10;2.30;;;19.30;52.20;;;;;;4992564;28;88108;-72
2022/05/05 08:47:31;;;;;;;11.93;2.30;;;19.30;52.20;;;;;;4974426;28;88915;-72
2022/05/05 08:49:59;;;;;;;7.75;2.50;;;19.30;52.30;;;;;;4974707;28;89240;-72
2022/05/05 08:52:26;;;;;;;8.18;2.47;;;19.30;52.40;;;;;;4974170;28;90940;-72
2022/05/05 08:54:51;;;;;;;10.73;2.58;;;19.30;52.40;;;;;;5009566;28;90131;-72
2022/05/05 08:59:58;;;;;;;7.53;2.58;;;19.40;52.30;;;;;;4785308;22;89710;-63
2022/05/05 09:02:24;;;;;;;7.45;2.72;;;19.40;52.20;;;;;;5007069;28;88404;-63
2022/05/05 09:04:49;;;;;;;9.80;2.28;;;19.40;52.20;;;;;;5011778;28;88450;-63
2022/05/05 09:07:15;;;;;;;13.82;3.15;;;19.40;52.20;;;;;;5012308;28;88706;-63
2022/05/05 09:09:41;;;;;;;7.80;2.42;;;19.40;52.20;;;;;;5010782;28;88739;-64
2022/05/05 09:12:07;;;;;;;12.05;3.05;;;19.40;52.40;;;;;;5012121;28;88522;-63
2022/05/05 09:14:44;;;;;;;6.90;2.40;;;19.40;52.60;;;;;;5011325;28;88841;-64
2022/05/05 09:17:14;;;;;;;15.25;3.58;;;19.40;52.60;;;;;;5011535;28;88301;-63
2022/05/05 09:19:48;;;;;;;10.77;3.47;;;19.40;52.60;;;;;;5011765;28;88561;-63
2022/05/05 09:22:16;;;;;;;12.93;3.45;;;19.50;52.90;;;;;;5011269;28;88720;-64
2022/05/05 09:24:49;;;;;;;8.55;3.50;;;19.50;52.70;;;;;;5011076;28;88499;-64
2022/05/05 09:27:18;;;;;;;7.25;3.00;;;19.50;52.70;;;;;;5011705;28;88271;-64
2022/05/05 09:30:14;;;;;;;7.05;3.13;;;19.50;52.60;;;;;;5011264;28;88815;-63
2022/05/05 09:32:44;;;;;;;8.25;3.33;;;19.50;52.50;;;;;;5011152;28;87648;-64
2022/05/05 09:35:15;;;;;;;11.10;3.13;;;19.50;52.60;;;;;;5010896;28;88758;-63
2022/05/05 09:37:48;;;;;;;7.22;3.17;;;19.50;52.70;;;;;;5011557;28;88317;-63
2022/05/05 09:40:17;;;;;;;;;;;19.50;52.70;;;;;;4994534;28;91461;-64
2022/05/05 09:42:47;;;;;;;6.72;3.15;;;19.50;52.70;;;;;;5015623;28;88621;-64
2022/05/05 09:45:17;;;;;;;7.90;2.90;;;19.50;52.80;;;;;;5014786;28;88092;-63
2022/05/05 09:47:45;;;;;;;8.02;3.72;;;19.50;52.80;;;;;;5015352;28;88419;-63
2022/05/05 09:50:12;;;;;;;9.50;4.40;;;19.50;52.70;;;;;;5015150;28;88629;-62
2022/05/05 09:58:09;;;;;;;9.93;4.28;;;19.50;52.70;;;;;;5015181;28;88198;-63
2022/05/05 10:00:45;;;;;;;8.68;4.00;;;19.50;52.90;;;;;;5015368;28;88678;-64
2022/05/05 10:06:16;;;;;;;9.57;3.90;;;19.50;53.00;;;;;;4997941;28;88765;-64
2022/05/05 10:08:45;;;;;;;6.22;3.53;;;19.50;53.20;;;;;;5014837;28;88224;-64
2022/05/05 10:11:14;;;;;;;8.75;4.20;;;19.50;53.20;;;;;;5014672;28;88383;-64
2022/05/05 10:13:39;;;;;;;7.70;3.95;;;19.50;53.20;;;;;;5014171;28;88260;-64
2022/05/05 10:16:06;;;;;;;10.18;4.18;;;19.50;53.10;;;;;;5011854;28;88187;-64
2022/05/05 10:18:35;;;;;;;7.90;3.65;;;19.50;53.20;;;;;;5013928;28;88227;-64
2022/05/05 10:21:01;;;;;;;8.73;3.90;;;19.50;53.10;;;;;;5013142;28;88325;-63
2022/05/05 10:23:29;;;;;;;10.77;3.85;;;19.40;53.20;;;;;;5015150;28;88642;-64
2022/05/05 10:25:55;;;;;;;8.77;3.55;;;19.50;53.20;;;;;;5013800;28;88399;-64
2022/05/05 10:28:37;;;;;;;10.60;4.05;;;19.50;53.00;;;;;;5013513;28;88194;-63
2022/05/05 10:31:02;;;;;;;8.30;3.65;;;19.50;53.20;;;;;;5013897;28;89643;-64
2022/05/05 10:34:00;;;;;;;8.80;4.22;;;19.50;53.20;;;;;;5014387;28;89115;-63
2022/05/05 10:36:27;;;;;;;7.47;4.05;;;19.50;53.20;;;;;;5014175;28;88082;-64
2022/05/05 10:38:53;;;;;;;8.55;3.90;;;19.40;53.40;;;;;;5013924;28;88464;-62
2022/05/05 10:41:34;;;;;;;10.13;4.30;;;19.50;53.70;;;;;;5013751;28;88512;-61
2022/05/05 10:44:22;;;;;;;9.52;4.05;;;19.50;53.80;;;;;;5013954;28;88397;-63
2022/05/05 10:47:02;;;;;;;9.40;4.00;;;19.50;54.30;;;;;;5013304;28;88573;-63
2022/05/05 10:49:33;;;;;;;7.88;4.30;;;19.50;54.70;;;;;;5013587;28;88249;-63
2022/05/05 10:52:11;;;;;;;9.18;4.50;;;19.40;54.60;;;;;;5012486;28;88817;-64
2022/05/05 10:54:39;;;;;;;10.35;4.40;;;19.40;54.20;;;;;;5014026;28;88343;-64
2022/05/05 10:57:26;;;;;;;13.32;4.70;;;19.40;54.10;;;;;;5013576;28;88815;-64
2022/05/05 11:00:10;;;;;;;11.95;4.35;;;19.40;54.00;;;;;;5012965;28;88396;-64
2022/05/05 11:02:38;;;;;;;11.10;4.55;;;19.40;54.00;;;;;;5014149;28;88907;-63
2022/05/05 11:05:31;;;;;;;9.88;4.53;;;19.30;54.60;;;;;;5013895;28;88053;-64
2022/05/05 11:08:17;;;;;;;10.40;4.25;;;19.30;54.00;;;;;;5013144;28;88510;-64
2022/05/05 11:10:48;;;;;;;11.90;4.43;;;19.30;55.10;;;;;;5013567;28;88162;-64
2022/05/05 11:13:37;;;;;;;7.50;4.07;;;19.30;54.10;;;;;;5013856;28;88919;-63
2022/05/05 11:22:09;;;;;;;7.00;4.28;;;19.20;54.20;;;;;;5013311;28;88036;-63
2022/05/05 11:24:36;;;;;;;10.63;4.22;;;19.20;54.10;;;;;;5013072;28;89253;-64
2022/05/05 11:27:02;;;;;;;12.55;5.25;;;19.10;54.10;;;;;;5013312;28;89217;-64
2022/05/05 11:29:32;;;;;;;5.82;4.47;;;19.20;54.30;;;;;;5012869;28;88241;-63
2022/05/05 11:32:00;;;;;;;8.98;4.47;;;19.20;54.10;;;;;;5013266;28;88119;-63
2022/05/05 11:34:51;;;;;;;6.03;3.92;;;19.20;54.00;;;;;;5013159;28;88576;-61
2022/05/05 11:37:17;;;;;;;8.65;4.57;;;19.20;53.90;;;;;;5009651;28;94048;-64
2022/05/05 11:39:42;;;;;;;9.73;5.20;;;19.10;54.00;;;;;;5014199;28;88710;-64
2022/05/05 11:42:10;;;;;;;16.38;5.13;;;19.10;54.20;;;;;;5013522;28;88671;-64
2022/05/05 11:44:37;;;;;;;11.23;4.85;;;19.20;54.20;;;;;;5013406;28;88582;-64
2022/05/05 11:47:11;;;;;;;10.27;4.65;;;19.20;54.20;;;;;;5010834;28;90835;-64
2022/05/05 11:49:38;;;;;;;8.15;5.30;;;19.20;54.20;;;;;;5012971;28;88831;-63
2022/05/05 11:52:04;;;;;;;9.50;5.20;;;19.20;54.20;;;;;;4994640;28;89917;-63
2022/05/05 11:54:32;;;;;;;10.00;5.00;;;19.20;54.40;;;;;;4994272;28;88610;-63
2022/05/05 11:56:59;;;;;;;13.38;5.68;;;19.20;54.70;;;;;;4994111;28;88912;-65
2022/05/05 12:02:17;;;;;;;11.23;6.07;;;19.30;54.90;;;;;;5013122;28;88551;-63
2022/05/05 12:04:49;;;;;;;18.80;10.13;;;19.30;54.30;;;;;;5012310;28;88394;-62
2022/05/05 12:07:20;;;;;;;19.02;9.88;;;19.20;53.20;;;;;;5012100;28;88826;-63
2022/05/05 12:09:48;;;;;;;15.63;9.45;;;19.20;52.90;;;;;;5012976;28;89328;-63
2022/05/05 12:12:19;;;;;;;13.88;9.93;;;19.20;53.10;;;;;;5013170;28;88436;-64
2022/05/05 12:15:01;;;;;;;17.13;10.63;;;19.20;53.00;;;;;;5012747;28;89494;-64
2022/05/05 12:17:42;;;;;;;19.57;12.20;;;19.10;52.80;;;;;;5010877;28;90105;-63
2022/05/05 12:20:13;;;;;;;19.70;12.98;;;19.20;51.90;;;;;;5011849;28;88839;-63
2022/05/05 12:22:40;;;;;;;17.20;13.65;;;19.20;51.70;;;;;;5011984;28;88932;-63
2022/05/05 12:25:14;;;;;;;17.65;12.50;;;19.10;51.50;;;;;;5011676;28;88967;-63
2022/05/05 12:27:41;;;;;;;19.38;12.38;;;19.10;51.60;;;;;;5010987;28;89137;-62
2022/05/05 12:30:08;;;;;;;20.02;11.70;;;19.20;51.80;;;;;;5011404;28;88928;-63
2022/05/05 12:32:33;;;;;;;20.60;11.98;;;19.10;51.90;;;;;;5009315;28;89237;-63
2022/05/05 12:35:10;;;;;;;17.20;11.27;;;19.20;52.10;;;;;;4989891;28;89191;-62
2022/05/05 12:37:37;;;;;;;16.55;11.57;;;19.20;52.20;;;;;;4989530;28;89849;-63
2022/05/05 12:40:04;;;;;;;18.92;11.32;;;19.20;52.30;;;;;;4990036;28;89784;-62
2022/05/05 12:42:41;;;;;;;15.32;11.57;;;19.20;52.60;;;;;;4990619;28;89243;-62
2022/05/05 12:45:13;;;;;;;15.05;11.07;;;19.30;52.90;;;;;;4991094;28;88565;-62
2022/05/05 12:47:41;;;;;;;15.10;11.07;;;19.30;53.20;;;;;;4991278;28;88620;-62
2022/05/05 12:50:27;;;;;;;15.13;10.73;;;19.30;53.30;;;;;;4990400;28;88508;-62
2022/05/05 13:01:05;;;;;;;12.98;9.65;;;19.40;53.60;;;;;;4991104;28;88532;-62
2022/05/05 13:03:31;;;;;;;17.60;9.60;;;19.40;53.80;;;;;;4990710;28;88656;-62
2022/05/05 13:05:57;;;;;;;18.52;9.50;;;19.50;53.90;;;;;;4994971;28;90753;-62
2022/05/05 13:08:23;;;;;;;19.42;9.15;;;19.40;54.00;;;;;;4996067;28;89358;-62
2022/05/05 13:10:49;;;;;;;12.70;8.63;;;19.40;54.00;;;;;;4992391;28;90184;-62
2022/05/05 13:13:14;;;;;;;14.27;8.32;;;19.40;54.10;;;;;;4988413;28;88357;-62
2022/05/05 13:15:42;;;;;;;12.68;8.90;;;19.40;54.00;;;;;;4973685;28;90154;-63
2022/05/05 13:18:08;;;;;;;15.25;9.05;;;19.40;53.70;;;;;;4993437;28;88715;-61
2022/05/05 13:20:34;;;;;;;12.43;8.65;;;19.40;53.60;;;;;;4994258;28;88320;-63
2022/05/05 13:23:01;;;;;;;12.20;8.48;;;19.30;53.50;;;;;;4994223;28;88651;-63
2022/05/05 13:25:27;;;;;;;13.18;8.18;;;19.30;53.50;;;;;;4994318;28;88484;-62
2022/05/05 13:27:53;;;;;;;11.27;8.05;;;19.30;53.60;;;;;;4993782;28;88515;-62
2022/05/05 13:30:19;;;;;;;12.75;7.72;;;19.20;53.50;;;;;;4994545;28;88934;-62
2022/05/05 13:32:44;;;;;;;11.02;7.65;;;19.20;53.60;;;;;;4976840;28;88662;-62
2022/05/05 13:35:10;;;;;;;9.27;7.78;;;19.20;53.70;;;;;;4994493;28;88549;-62
2022/05/05 13:37:37;;;;;;;10.63;7.18;;;19.10;53.60;;;;;;4993365;28;88499;-62
2022/05/05 13:40:06;;;;;;;11.10;7.40;;;19.10;53.70;;;;;;4994078;28;88175;-62
2022/05/05 13:42:33;;;;;;;10.57;7.25;;;19.10;53.70;;;;;;4994763;28;88807;-62
2022/05/05 13:44:59;;;;;;;9.98;7.15;;;19.10;53.70;;;;;;4975848;28;88943;-63
2022/05/05 13:47:24;;;;;;;9.48;6.90;;;19.10;53.70;;;;;;4994892;28;88566;-62
2022/05/05 13:49:50;;;;;;;8.43;7.30;;;19.10;53.70;;;;;;4975411;28;89030;-62
2022/05/05 13:52:15;;;;;;;9.80;6.78;;;19.10;54.20;;;;;;4994753;28;88814;-62
2022/05/05 13:54:41;;;;;;;10.27;7.10;;;19.10;53.70;;;;;;4994199;28;89560;-62
2022/05/05 13:57:07;;;;;;;9.73;7.10;;;19.10;53.70;;;;;;4975795;28;90982;-62
2022/05/05 13:59:32;;;;;;;9.70;6.68;;;19.00;53.60;;;;;;4993446;28;88121;-62
2022/05/05 14:01:58;;;;;;;8.27;6.82;;;19.00;53.60;;;;;;4993594;28;88115;-62
2022/05/05 14:04:23;;;;;;;10.00;6.57;;;19.00;53.60;;;;;;4993748;28;88671;-62
2022/05/05 14:06:50;;;;;;;8.38;6.30;;;19.00;53.60;;;;;;4992249;28;88255;-63
2022/05/05 14:12:11;;;;;;;9.07;6.63;;;19.00;53.60;;;;;;4994503;28;87757;-63
2022/05/05 14:14:38;;;;;;;9.95;6.40;;;19.00;53.60;;;;;;4975440;28;88863;-63
2022/05/05 14:17:05;;;;;;;9.82;6.55;;;19.00;53.60;;;;;;4975980;28;90350;-62
2022/05/05 14:19:31;;;;;;;9.30;6.90;;;19.00;53.60;;;;;;4993577;28;88724;-62
2022/05/05 14:21:58;;;;;;;8.90;6.18;;;19.00;53.50;;;;;;4994005;28;88083;-62
2022/05/05 14:24:24;;;;;;;9.35;6.95;;;19.00;53.50;;;;;;4976053;28;89917;-62
2022/05/05 14:26:50;;;;;;;10.82;6.68;;;19.00;53.60;;;;;;4993344;28;88246;-62
2022/05/05 14:29:16;;;;;;;9.20;6.38;;;19.00;53.50;;;;;;4993518;28;88671;-62
2022/05/05 14:31:41;;;;;;;9.40;5.93;;;19.00;53.50;;;;;;4993736;28;88028;-63
2022/05/05 14:34:09;;;;;;;8.27;6.50;;;19.00;53.50;;;;;;4993709;28;89004;-62
2022/05/05 14:36:35;;;;;;;8.57;6.05;;;19.00;53.40;;;;;;4993852;28;88362;-62
2022/05/05 14:39:01;;;;;;;7.75;6.50;;;19.00;53.40;;;;;;4975402;28;89452;-62
2022/05/05 14:41:26;;;;;;;8.98;6.47;;;19.00;53.50;;;;;;4993633;28;88517;-64
2022/05/05 14:43:52;;;;;;;8.32;6.25;;;19.00;53.40;;;;;;4993464;28;89403;-64
2022/05/05 14:46:19;;;;;;;8.07;5.78;;;19.00;53.40;;;;;;4993725;28;89240;-64
2022/05/05 14:48:44;;;;;;;7.60;5.63;;;19.00;53.40;;;;;;4993614;28;88888;-64
2022/05/05 14:51:10;;;;;;;7.07;5.50;;;19.00;53.40;;;;;;4994110;28;88093;-63
2022/05/05 14:53:35;;;;;;;7.55;5.53;;;19.00;53.40;;;;;;4993991;28;88595;-64
2022/05/05 14:56:01;;;;;;;6.85;5.97;;;19.00;53.40;;;;;;4994029;28;88837;-63
2022/05/05 14:58:27;;;;;;;7.78;5.70;;;19.00;53.40;;;;;;4993282;28;88213;-63
2022/05/05 15:00:52;;;;;;;8.18;5.68;;;19.00;53.40;;;;;;4993828;28;88665;-64
2022/05/05 15:03:18;;;;;;;6.72;5.45;;;19.00;53.30;;;;;;4974601;28;89822;-63
2022/05/05 15:05:43;;;;;;;8.77;5.45;;;18.90;53.30;;;;;;4974736;28;88721;-64
2022/05/05 15:08:09;;;;;;;8.85;6.40;;;19.00;53.30;;;;;;4974327;28;88845;-64
2022/05/05 15:10:35;;;;;;;6.38;5.32;;;19.00;53.20;;;;;;4993375;28;88467;-61
2022/05/05 15:13:01;;;;;;;5.65;5.07;;;19.00;53.30;;;;;;4974059;28;89685;-62
2022/05/05 15:15:27;;;;;;;6.20;5.45;;;19.00;53.20;;;;;;4990895;28;91036;-62
2022/05/05 15:17:53;;;;;;;7.60;5.60;;;19.00;53.20;;;;;;4993217;28;88667;-63
2022/05/05 15:20:19;;;;;;;6.88;5.28;;;19.00;53.20;;;;;;4993313;28;88583;-63
2022/05/05 15:22:44;;;;;;;8.43;5.75;;;19.00;53.20;;;;;;4992614;28;88663;-62
2022/05/05 15:25:11;;;;;;;6.75;5.38;;;19.00;53.10;;;;;;4991031;28;90697;-63
2022/05/05 15:27:38;;;;;;;5.65;5.05;;;19.00;53.10;;;;;;4992974;28;88542;-62
2022/05/05 15:30:05;;;;;;;6.57;5.13;;;19.00;53.10;;;;;;4992797;28;88689;-62
2022/05/05 15:32:32;;;;;;;6.82;5.18;;;19.00;53.10;;;;;;4991944;28;90120;-62
2022/05/05 15:34:59;;;;;;;5.90;5.25;;;19.00;53.10;;;;;;4973677;28;91525;-62
2022/05/05 15:37:25;;;;;;;6.72;4.85;;;19.00;53.00;;;;;;4973363;28;88926;-62
2022/05/05 15:39:52;;;;;;;6.35;4.65;;;19.00;53.00;;;;;;4992186;28;88162;-62
2022/05/05 15:42:17;;;;;;;19.20;5.50;;;19.10;53.00;;;;;;4992391;28;89452;-62
2022/05/05 15:44:43;;;;;;;12.75;5.18;;;19.10;53.20;;;;;;4992063;28;88421;-63
2022/05/05 15:47:09;;;;;;;6.93;3.88;;;19.10;53.70;;;;;;4991047;28;88761;-64
2022/05/05 15:49:35;;;;;;;8.13;3.30;;;19.10;52.20;;;;;;4991103;28;88609;-62
2022/05/05 15:52:02;;;;;;;4.25;2.90;;;19.10;50.90;;;;;;4992515;28;88243;-62
2022/05/05 15:54:28;;;;;;;3.28;2.90;;;19.10;50.50;;;;;;4992811;28;88411;-62
2022/05/05 15:56:54;;;;;;;4.25;2.70;;;19.10;49.80;;;;;;4991945;28;89422;-64
2022/05/05 15:59:19;;;;;;;4.10;2.50;;;19.10;49.60;;;;;;4992309;28;88207;-63
2022/05/05 16:01:45;;;;;;;3.33;2.65;;;19.10;49.50;;;;;;4992605;28;88827;-63
2022/05/05 16:04:11;;;;;;;4.80;2.85;;;19.20;49.90;;;;;;4992151;28;88697;-63
2022/05/05 16:06:36;;;;;;;6.10;2.65;;;19.20;50.40;;;;;;4993087;28;88305;-63
2022/05/05 16:09:03;;;;;;;6.15;2.50;;;19.30;50.80;;;;;;4992448;28;88656;-63
2022/05/05 16:11:29;;;;;;;5.97;2.65;;;19.30;50.90;;;;;;4974060;28;89076;-62
2022/05/05 16:13:54;;;;;;;5.00;2.70;;;19.40;51.10;;;;;;4991448;28;88255;-63
2022/05/05 16:16:20;;;;;;;6.20;2.60;;;19.40;51.30;;;;;;4991594;28;88245;-62
2022/05/05 16:18:45;;;;;;;3.95;2.42;;;19.40;51.30;;;;;;4974107;28;89457;-63
2022/05/05 16:21:11;;;;;;;4.70;2.40;;;19.40;51.60;;;;;;4991474;28;89392;-63
2022/05/05 16:23:39;;;;;;;4.50;2.38;;;19.40;52.00;;;;;;4992636;28;88869;-63
2022/05/05 16:31:33;;;;;;;4.55;2.45;;;19.40;53.10;;;;;;4991903;28;88496;-63
2022/05/05 16:33:59;;;;;;;5.03;2.30;;;19.50;53.60;;;;;;4991756;28;88920;-63
2022/05/05 16:36:26;;;;;;;6.47;2.67;;;19.50;54.00;;;;;;4992060;28;88132;-62
2022/05/05 16:38:53;;;;;;;6.80;2.55;;;19.50;54.80;;;;;;4992282;28;88706;-62
2022/05/05 16:41:18;;;;;;;4.25;2.30;;;19.60;55.30;;;;;;4990948;28;88501;-63
2022/05/05 16:43:46;;;;;;;6.63;2.60;;;19.60;55.40;;;;;;4991578;28;88278;-62
2022/05/05 16:46:12;;;;;;;7.45;2.40;;;19.60;55.60;;;;;;4991079;28;88777;-62
2022/05/05 16:48:37;;;;;;;7.30;2.83;;;19.70;56.00;;;;;;4992759;28;88400;-63
2022/05/05 16:51:03;;;;;;;6.72;2.67;;;19.70;56.20;;;;;;4994774;28;88764;-63
2022/05/05 16:53:29;;;;;;;5.72;2.45;;;19.70;56.40;;;;;;4993634;28;90000;-62
2022/05/05 16:55:54;;;;;;;5.55;2.72;;;19.70;56.60;;;;;;4995651;28;88225;-63
2022/05/05 16:58:21;;;;;;;5.07;2.90;;;19.80;56.80;;;;;;4994762;28;88140;-63
2022/05/05 17:00:47;;;;;;;7.18;2.63;;;19.80;56.70;;;;;;4994720;28;88503;-63
2022/05/05 17:03:14;;;;;;;12.40;3.13;;;19.80;56.80;;;;;;4976001;28;89298;-63